sensor_id;sensor_type;location;lat;lon;timestamp;P1;durP1;ratioP1;P2;durP2;ratioP2
42514;SDS011;28144;49.920;18.730;2022-11-15T00:00:18;553.67;;;54.93;;
42514;SDS011;28144;49.920;18.730;2022-11-15T00:03:05;397.37;;;56.93;;
42514;SDS011;28144;49.920;18.730;2022-11-15T00:09:38;581.37;;;56.73;;
42514;SDS011;28144;49.920;18.730;2022-11-15T00:12:13;433.17;;;49.57;;
42514;SDS011;28144;49.920;18.730;2022-11-15T00:14:42;340.40;;;52.23;;
42514;SDS011;28144;49.920;18.730;2022-11-15T00:17:21;166.30;;;32.53;;
42514;SDS011;28144;49.920;18.730;2022-11-15T00:20:00;286.37;;;39.47;;
42514;SDS011;28144;49.920;18.730;2022-11-15T00:22:34;428.77;;;54.73;;
42514;SDS011;28144;49.920;18.730;2022-11-15T00:25:09;429.03;;;47.80;;
42514;SDS011;28144;49.920;18.730;2022-11-15T00:27:47;467.83;;;55.20;;
42514;SDS011;28144;49.920;18.730;2022-11-15T00:30:22;396.03;;;52.57;;
42514;SDS011;28144;49.920;18.730;2022-11-15T00:33:25;597.73;;;57.33;;
42514;SDS011;28144;49.920;18.730;2022-11-15T00:36:06;272.53;;;39.20;;
42514;SDS011;28144;49.920;18.730;2022-11-15T00:38:42;457.07;;;52.43;;
42514;SDS011;28144;49.920;18.730;2022-11-15T00:45:09;336.17;;;38.20;;
42514;SDS011;28144;49.920;18.730;2022-11-15T00:47:52;407.83;;;42.30;;
42514;SDS011;28144;49.920;18.730;2022-11-15T00:50:58;447.77;;;43.73;;
42514;SDS011;28144;49.920;18.730;2022-11-15T00:57:56;447.93;;;47.13;;
42514;SDS011;28144;49.920;18.730;2022-11-15T01:05:08;185.43;;;32.57;;
42514;SDS011;28144;49.920;18.730;2022-11-15T01:11:11;382.73;;;44.40;;
42514;SDS011;28144;49.920;18.730;2022-11-15T01:14:06;363.67;;;41.33;;
42514;SDS011;28144;49.920;18.730;2022-11-15T01:41:31;449.73;;;44.23;;
42514;SDS011;28144;49.920;18.730;2022-11-15T04:00:23;377.83;;;42.47;;
42514;SDS011;28144;49.920;18.730;2022-11-15T04:02:50;369.60;;;37.97;;
42514;SDS011;28144;49.920;18.730;2022-11-15T04:05:15;499.90;;;41.10;;
42514;SDS011;28144;49.920;18.730;2022-11-15T04:07:43;283.93;;;35.37;;
42514;SDS011;28144;49.920;18.730;2022-11-15T04:10:52;412.97;;;40.33;;
42514;SDS011;28144;49.920;18.730;2022-11-15T04:15:49;389.90;;;44.03;;
42514;SDS011;28144;49.920;18.730;2022-11-15T04:18:15;776.23;;;51.17;;
42514;SDS011;28144;49.920;18.730;2022-11-15T04:20:41;472.70;;;46.30;;
42514;SDS011;28144;49.920;18.730;2022-11-15T04:23:32;577.10;;;56.50;;
42514;SDS011;28144;49.920;18.730;2022-11-15T04:26:16;394.27;;;40.50;;
42514;SDS011;28144;49.920;18.730;2022-11-15T04:28:44;614.70;;;52.13;;
42514;SDS011;28144;49.920;18.730;2022-11-15T04:31:32;515.17;;;46.97;;
42514;SDS011;28144;49.920;18.730;2022-11-15T04:33:59;670.80;;;52.75;;
42514;SDS011;28144;49.920;18.730;2022-11-15T04:36:24;442.00;;;46.40;;
42514;SDS011;28144;49.920;18.730;2022-11-15T04:39:09;611.13;;;48.83;;
42514;SDS011;28144;49.920;18.730;2022-11-15T04:41:35;520.10;;;55.35;;
42514;SDS011;28144;49.920;18.730;2022-11-15T04:44:12;501.83;;;53.37;;
42514;SDS011;28144;49.920;18.730;2022-11-15T04:46:44;511.93;;;53.97;;
42514;SDS011;28144;49.920;18.730;2022-11-15T04:53:02;623.53;;;50.57;;
42514;SDS011;28144;49.920;18.730;2022-11-15T04:55:28;361.13;;;45.53;;
42514;SDS011;28144;49.920;18.730;2022-11-15T04:57:58;455.90;;;49.97;;
42514;SDS011;28144;49.920;18.730;2022-11-15T05:00:25;470.00;;;49.30;;
42514;SDS011;28144;49.920;18.730;2022-11-15T05:02:51;635.83;;;53.17;;
42514;SDS011;28144;49.920;18.730;2022-11-15T05:05:36;499.37;;;49.73;;
42514;SDS011;28144;49.920;18.730;2022-11-15T05:08:02;303.13;;;43.50;;
42514;SDS011;28144;49.920;18.730;2022-11-15T05:10:28;344.80;;;47.67;;
42514;SDS011;28144;49.920;18.730;2022-11-15T05:12:54;425.53;;;49.97;;
42514;SDS011;28144;49.920;18.730;2022-11-15T05:15:20;534.63;;;51.40;;
42514;SDS011;28144;49.920;18.730;2022-11-15T05:17:45;608.33;;;67.10;;
42514;SDS011;28144;49.920;18.730;2022-11-15T05:20:12;673.43;;;65.43;;
42514;SDS011;28144;49.920;18.730;2022-11-15T05:22:38;677.70;;;62.80;;
42514;SDS011;28144;49.920;18.730;2022-11-15T05:25:04;738.35;;;70.15;;
42514;SDS011;28144;49.920;18.730;2022-11-15T05:27:30;514.00;;;50.17;;
42514;SDS011;28144;49.920;18.730;2022-11-15T05:29:57;333.38;;;44.72;;
42514;SDS011;28144;49.920;18.730;2022-11-15T05:32:22;558.77;;;48.07;;
42514;SDS011;28144;49.920;18.730;2022-11-15T05:34:49;510.85;;;45.60;;
42514;SDS011;28144;49.920;18.730;2022-11-15T05:37:15;452.87;;;46.13;;
42514;SDS011;28144;49.920;18.730;2022-11-15T05:39:41;387.67;;;40.67;;
42514;SDS011;28144;49.920;18.730;2022-11-15T05:42:09;292.87;;;39.93;;
42514;SDS011;28144;49.920;18.730;2022-11-15T05:44:39;411.10;;;45.23;;
42514;SDS011;28144;49.920;18.730;2022-11-15T05:47:08;525.23;;;49.47;;
42514;SDS011;28144;49.920;18.730;2022-11-15T05:49:35;279.20;;;51.10;;
42514;SDS011;28144;49.920;18.730;2022-11-15T05:52:02;183.43;;;31.90;;
42514;SDS011;28144;49.920;18.730;2022-11-15T05:54:30;327.80;;;55.63;;
42514;SDS011;28144;49.920;18.730;2022-11-15T05:56:56;200.85;;;30.65;;
42514;SDS011;28144;49.920;18.730;2022-11-15T05:59:22;196.23;;;32.50;;
42514;SDS011;28144;49.920;18.730;2022-11-15T06:01:48;341.90;;;46.83;;
42514;SDS011;28144;49.920;18.730;2022-11-15T06:04:14;511.77;;;49.50;;
42514;SDS011;28144;49.920;18.730;2022-11-15T06:06:39;515.60;;;48.63;;
42514;SDS011;28144;49.920;18.730;2022-11-15T06:09:05;418.90;;;44.63;;
42514;SDS011;28144;49.920;18.730;2022-11-15T06:11:31;328.57;;;37.60;;
42514;SDS011;28144;49.920;18.730;2022-11-15T06:13:57;126.77;;;32.70;;
42514;SDS011;28144;49.920;18.730;2022-11-15T06:16:23;235.53;;;38.63;;
42514;SDS011;28144;49.920;18.730;2022-11-15T06:18:49;198.20;;;38.00;;
42514;SDS011;28144;49.920;18.730;2022-11-15T06:21:14;455.03;;;45.20;;
42514;SDS011;28144;49.920;18.730;2022-11-15T06:23:40;210.97;;;38.47;;
42514;SDS011;28144;49.920;18.730;2022-11-15T06:26:06;344.07;;;39.97;;
42514;SDS011;28144;49.920;18.730;2022-11-15T06:28:32;339.47;;;40.00;;
42514;SDS011;28144;49.920;18.730;2022-11-15T06:31:04;255.00;;;39.58;;
42514;SDS011;28144;49.920;18.730;2022-11-15T06:33:31;310.13;;;40.67;;
42514;SDS011;28144;49.920;18.730;2022-11-15T06:36:04;95.43;;;31.90;;
42514;SDS011;28144;49.920;18.730;2022-11-15T06:38:30;143.10;;;36.77;;
42514;SDS011;28144;49.920;18.730;2022-11-15T06:41:07;148.07;;;43.90;;
42514;SDS011;28144;49.920;18.730;2022-11-15T06:43:34;166.03;;;52.80;;
42514;SDS011;28144;49.920;18.730;2022-11-15T06:46:03;223.13;;;53.47;;
42514;SDS011;28144;49.920;18.730;2022-11-15T06:48:30;140.30;;;46.87;;
42514;SDS011;28144;49.920;18.730;2022-11-15T06:50:57;181.75;;;49.13;;
42514;SDS011;28144;49.920;18.730;2022-11-15T06:53:24;155.27;;;43.60;;
42514;SDS011;28144;49.920;18.730;2022-11-15T06:55:51;168.70;;;46.38;;
42514;SDS011;28144;49.920;18.730;2022-11-15T06:58:17;301.20;;;54.47;;
42514;SDS011;28144;49.920;18.730;2022-11-15T07:00:42;335.37;;;55.87;;
42514;SDS011;28144;49.920;18.730;2022-11-15T07:03:08;155.30;;;52.07;;
42514;SDS011;28144;49.920;18.730;2022-11-15T07:05:34;136.40;;;54.43;;
42514;SDS011;28144;49.920;18.730;2022-11-15T07:08:00;275.13;;;63.13;;
42514;SDS011;28144;49.920;18.730;2022-11-15T07:10:26;258.97;;;50.77;;
42514;SDS011;28144;49.920;18.730;2022-11-15T07:12:53;234.88;;;52.70;;
42514;SDS011;28144;49.920;18.730;2022-11-15T07:15:21;180.38;;;41.67;;
42514;SDS011;28144;49.920;18.730;2022-11-15T07:17:48;274.00;;;43.60;;
42514;SDS011;28144;49.920;18.730;2022-11-15T07:20:15;133.37;;;38.87;;
42514;SDS011;28144;49.920;18.730;2022-11-15T07:22:41;307.83;;;43.87;;
42514;SDS011;28144;49.920;18.730;2022-11-15T07:25:07;246.73;;;39.47;;
42514;SDS011;28144;49.920;18.730;2022-11-15T07:27:34;164.05;;;38.35;;
42514;SDS011;28144;49.920;18.730;2022-11-15T07:30:00;241.23;;;49.57;;
42514;SDS011;28144;49.920;18.730;2022-11-15T07:32:26;268.70;;;55.22;;
42514;SDS011;28144;49.920;18.730;2022-11-15T07:34:53;151.07;;;41.67;;
42514;SDS011;28144;49.920;18.730;2022-11-15T07:37:19;196.37;;;40.17;;
42514;SDS011;28144;49.920;18.730;2022-11-15T07:39:45;129.57;;;36.20;;
42514;SDS011;28144;49.920;18.730;2022-11-15T07:42:11;111.72;;;39.38;;
42514;SDS011;28144;49.920;18.730;2022-11-15T07:44:55;217.17;;;46.50;;
42514;SDS011;28144;49.920;18.730;2022-11-15T07:47:21;124.80;;;46.57;;
42514;SDS011;28144;49.920;18.730;2022-11-15T07:49:47;135.67;;;52.43;;
42514;SDS011;28144;49.920;18.730;2022-11-15T07:52:13;194.27;;;60.63;;
42514;SDS011;28144;49.920;18.730;2022-11-15T07:54:39;110.07;;;52.27;;
42514;SDS011;28144;49.920;18.730;2022-11-15T07:57:05;181.45;;;69.95;;
42514;SDS011;28144;49.920;18.730;2022-11-15T07:59:32;111.13;;;49.85;;
42514;SDS011;28144;49.920;18.730;2022-11-15T08:01:58;95.72;;;45.75;;
42514;SDS011;28144;49.920;18.730;2022-11-15T08:04:24;95.70;;;46.13;;
42514;SDS011;28144;49.920;18.730;2022-11-15T08:06:49;100.13;;;49.87;;
42514;SDS011;28144;49.920;18.730;2022-11-15T08:09:15;103.77;;;51.90;;
42514;SDS011;28144;49.920;18.730;2022-11-15T08:11:41;241.37;;;98.53;;
42514;SDS011;28144;49.920;18.730;2022-11-15T08:14:07;162.77;;;66.20;;
42514;SDS011;28144;49.920;18.730;2022-11-15T08:16:33;744.57;;;280.50;;
42514;SDS011;28144;49.920;18.730;2022-11-15T08:18:58;629.77;;;251.00;;
42514;SDS011;28144;49.920;18.730;2022-11-15T08:21:24;702.07;;;293.10;;
42514;SDS011;28144;49.920;18.730;2022-11-15T08:23:50;152.17;;;64.83;;
42514;SDS011;28144;49.920;18.730;2022-11-15T08:26:16;91.60;;;44.42;;
42514;SDS011;28144;49.920;18.730;2022-11-15T08:28:42;81.53;;;42.65;;
42514;SDS011;28144;49.920;18.730;2022-11-15T08:31:15;88.67;;;44.77;;
42514;SDS011;28144;49.920;18.730;2022-11-15T08:33:41;101.13;;;50.03;;
42514;SDS011;28144;49.920;18.730;2022-11-15T08:36:09;538.73;;;182.87;;
42514;SDS011;28144;49.920;18.730;2022-11-15T08:38:39;224.13;;;83.83;;
42514;SDS011;28144;49.920;18.730;2022-11-15T08:41:05;132.63;;;54.53;;
42514;SDS011;28144;49.920;18.730;2022-11-15T08:43:32;87.00;;;42.07;;
42514;SDS011;28144;49.920;18.730;2022-11-15T08:45:58;183.27;;;63.65;;
42514;SDS011;28144;49.920;18.730;2022-11-15T08:48:24;330.63;;;111.97;;
42514;SDS011;28144;49.920;18.730;2022-11-15T08:50:54;835.25;;;345.15;;
42514;SDS011;28144;49.920;18.730;2022-11-15T08:53:21;87.10;;;44.80;;
42514;SDS011;28144;49.920;18.730;2022-11-15T08:55:48;65.67;;;37.77;;
42514;SDS011;28144;49.920;18.730;2022-11-15T08:58:14;65.00;;;39.33;;
42514;SDS011;28144;49.920;18.730;2022-11-15T09:03:07;477.80;;;166.50;;
42514;SDS011;28144;49.920;18.730;2022-11-15T09:05:37;238.07;;;91.00;;
42514;SDS011;28144;49.920;18.730;2022-11-15T09:08:03;231.40;;;85.47;;
42514;SDS011;28144;49.920;18.730;2022-11-15T09:10:29;363.15;;;127.47;;
42514;SDS011;28144;49.920;18.730;2022-11-15T09:12:56;213.97;;;84.23;;
42514;SDS011;28144;49.920;18.730;2022-11-15T09:15:22;86.53;;;47.13;;
42514;SDS011;28144;49.920;18.730;2022-11-15T09:17:48;105.27;;;59.07;;
42514;SDS011;28144;49.920;18.730;2022-11-15T09:20:14;105.83;;;61.33;;
42514;SDS011;28144;49.920;18.730;2022-11-15T09:22:40;94.90;;;50.40;;
42514;SDS011;28144;49.920;18.730;2022-11-15T09:25:06;174.30;;;68.43;;
42514;SDS011;28144;49.920;18.730;2022-11-15T09:27:32;126.00;;;55.33;;
42514;SDS011;28144;49.920;18.730;2022-11-15T09:29:58;119.90;;;54.30;;
42514;SDS011;28144;49.920;18.730;2022-11-15T09:32:23;250.97;;;91.00;;
42514;SDS011;28144;49.920;18.730;2022-11-15T09:34:49;234.77;;;86.20;;
42514;SDS011;28144;49.920;18.730;2022-11-15T09:37:15;495.10;;;193.43;;
42514;SDS011;28144;49.920;18.730;2022-11-15T09:39:41;552.45;;;225.38;;
42514;SDS011;28144;49.920;18.730;2022-11-15T09:42:30;313.77;;;113.50;;
42514;SDS011;28144;49.920;18.730;2022-11-15T09:50:49;50.73;;;31.17;;
42514;SDS011;28144;49.920;18.730;2022-11-15T09:53:20;52.43;;;31.00;;
42514;SDS011;28144;49.920;18.730;2022-11-15T10:01:34;40.00;;;25.23;;
42514;SDS011;28144;49.920;18.730;2022-11-15T10:03:58;39.50;;;25.03;;
42514;SDS011;28144;49.920;18.730;2022-11-15T10:06:25;41.33;;;25.05;;
42514;SDS011;28144;49.920;18.730;2022-11-15T10:11:28;44.28;;;25.38;;
42514;SDS011;28144;49.920;18.730;2022-11-15T10:13:58;41.95;;;27.25;;
42514;SDS011;28144;49.920;18.730;2022-11-15T10:19:11;47.75;;;26.42;;
42514;SDS011;28144;49.920;18.730;2022-11-15T10:21:56;51.33;;;28.75;;
42514;SDS011;28144;49.920;18.730;2022-11-15T10:24:26;48.33;;;29.48;;
42514;SDS011;28144;49.920;18.730;2022-11-15T10:26:54;49.75;;;28.35;;
42514;SDS011;28144;49.920;18.730;2022-11-15T10:31:47;42.15;;;26.80;;
42514;SDS011;28144;49.920;18.730;2022-11-15T10:34:14;43.10;;;27.23;;
42514;SDS011;28144;49.920;18.730;2022-11-15T10:36:45;43.90;;;26.17;;
42514;SDS011;28144;49.920;18.730;2022-11-15T10:39:12;46.10;;;27.33;;
42514;SDS011;28144;49.920;18.730;2022-11-15T10:41:40;42.50;;;26.85;;
42514;SDS011;28144;49.920;18.730;2022-11-15T10:46:43;43.63;;;26.55;;
42514;SDS011;28144;49.920;18.730;2022-11-15T10:49:16;48.40;;;28.95;;
42514;SDS011;28144;49.920;18.730;2022-11-15T10:51:49;48.72;;;30.33;;
42514;SDS011;28144;49.920;18.730;2022-11-15T10:54:39;41.73;;;26.43;;
42514;SDS011;28144;49.920;18.730;2022-11-15T10:57:56;43.55;;;27.30;;
42514;SDS011;28144;49.920;18.730;2022-11-15T11:05:27;43.33;;;25.67;;
42514;SDS011;28144;49.920;18.730;2022-11-15T11:08:04;40.85;;;26.30;;
42514;SDS011;28144;49.920;18.730;2022-11-15T11:10:36;46.42;;;26.02;;
42514;SDS011;28144;49.920;18.730;2022-11-15T11:13:44;47.42;;;26.75;;
42514;SDS011;28144;49.920;18.730;2022-11-15T11:18:38;45.00;;;26.58;;
42514;SDS011;28144;49.920;18.730;2022-11-15T11:21:13;46.95;;;26.65;;
42514;SDS011;28144;49.920;18.730;2022-11-15T11:23:59;40.58;;;24.60;;
42514;SDS011;28144;49.920;18.730;2022-11-15T11:29:26;37.97;;;23.77;;
42514;SDS011;28144;49.920;18.730;2022-11-15T11:32:34;38.83;;;25.23;;
42514;SDS011;28144;49.920;18.730;2022-11-15T11:46:31;54.28;;;28.98;;
42514;SDS011;28144;49.920;18.730;2022-11-15T11:49:25;75.95;;;39.63;;
42514;SDS011;28144;49.920;18.730;2022-11-15T11:51:58;91.53;;;47.90;;
42514;SDS011;28144;49.920;18.730;2022-11-15T11:57:51;122.10;;;64.68;;
42514;SDS011;28144;49.920;18.730;2022-11-15T12:00:24;59.80;;;36.53;;
42514;SDS011;28144;49.920;18.730;2022-11-15T12:03:07;40.45;;;24.65;;
42514;SDS011;28144;49.920;18.730;2022-11-15T12:06:01;45.35;;;23.75;;
42514;SDS011;28144;49.920;18.730;2022-11-15T12:08:33;42.50;;;25.17;;
42514;SDS011;28144;49.920;18.730;2022-11-15T12:11:19;37.65;;;23.30;;
42514;SDS011;28144;49.920;18.730;2022-11-15T12:13:48;39.38;;;22.75;;
42514;SDS011;28144;49.920;18.730;2022-11-15T12:16:23;41.83;;;24.40;;
42514;SDS011;28144;49.920;18.730;2022-11-15T12:18:54;41.45;;;26.13;;
42514;SDS011;28144;49.920;18.730;2022-11-15T12:24:21;45.60;;;25.40;;
42514;SDS011;28144;49.920;18.730;2022-11-15T12:27:01;40.53;;;26.23;;
42514;SDS011;28144;49.920;18.730;2022-11-15T12:29:33;42.90;;;29.75;;
42514;SDS011;28144;49.920;18.730;2022-11-15T12:32:02;32.00;;;20.58;;
42514;SDS011;28144;49.920;18.730;2022-11-15T12:34:42;34.03;;;21.52;;
42514;SDS011;28144;49.920;18.730;2022-11-15T13:06:47;50.38;;;27.23;;
42514;SDS011;28144;49.920;18.730;2022-11-15T13:12:03;184.88;;;64.05;;
42514;SDS011;28144;49.920;18.730;2022-11-15T13:17:31;231.02;;;64.18;;
42514;SDS011;28144;49.920;18.730;2022-11-15T13:22:48;71.35;;;28.95;;
42514;SDS011;28144;49.920;18.730;2022-11-15T13:30:35;83.35;;;37.67;;
42514;SDS011;28144;49.920;18.730;2022-11-15T13:35:40;62.78;;;31.85;;
42514;SDS011;28144;49.920;18.730;2022-11-15T13:38:15;434.27;;;248.18;;
42514;SDS011;28144;49.920;18.730;2022-11-15T13:40:52;114.47;;;52.10;;
42514;SDS011;28144;49.920;18.730;2022-11-15T13:43:26;109.57;;;47.42;;
42514;SDS011;28144;49.920;18.730;2022-11-15T13:46:19;165.45;;;72.75;;
42514;SDS011;28144;49.920;18.730;2022-11-15T13:48:52;164.88;;;71.03;;
42514;SDS011;28144;49.920;18.730;2022-11-15T13:51:27;96.85;;;43.13;;
42514;SDS011;28144;49.920;18.730;2022-11-15T13:56:54;113.90;;;52.58;;
42514;SDS011;28144;49.920;18.730;2022-11-15T14:00:06;110.00;;;52.33;;
42514;SDS011;28144;49.920;18.730;2022-11-15T14:02:16;108.60;;;48.95;;
42514;SDS011;28144;49.920;18.730;2022-11-15T14:04:49;99.70;;;49.70;;
42514;SDS011;28144;49.920;18.730;2022-11-15T14:07:19;93.25;;;45.03;;
42514;SDS011;28144;49.920;18.730;2022-11-15T14:09:47;102.13;;;46.08;;
42514;SDS011;28144;49.920;18.730;2022-11-15T14:12:49;88.05;;;41.88;;
42514;SDS011;28144;49.920;18.730;2022-11-15T14:15:28;80.05;;;38.65;;
42514;SDS011;28144;49.920;18.730;2022-11-15T14:17:57;70.72;;;38.08;;
42514;SDS011;28144;49.920;18.730;2022-11-15T14:20:28;78.25;;;41.50;;
42514;SDS011;28144;49.920;18.730;2022-11-15T14:23:02;75.55;;;37.53;;
42514;SDS011;28144;49.920;18.730;2022-11-15T14:29:29;96.10;;;55.30;;
42514;SDS011;28144;49.920;18.730;2022-11-15T14:35:39;140.63;;;86.28;;
42514;SDS011;28144;49.920;18.730;2022-11-15T14:38:05;152.20;;;92.80;;
42514;SDS011;28144;49.920;18.730;2022-11-15T14:40:31;144.10;;;80.00;;
42514;SDS011;28144;49.920;18.730;2022-11-15T14:42:57;117.45;;;71.65;;
42514;SDS011;28144;49.920;18.730;2022-11-15T14:45:26;122.00;;;67.47;;
42514;SDS011;28144;49.920;18.730;2022-11-15T14:47:52;139.52;;;79.60;;
42514;SDS011;28144;49.920;18.730;2022-11-15T14:50:19;135.47;;;72.80;;
42514;SDS011;28144;49.920;18.730;2022-11-15T14:52:47;138.98;;;75.13;;
42514;SDS011;28144;49.920;18.730;2022-11-15T14:55:19;139.57;;;76.25;;
42514;SDS011;28144;49.920;18.730;2022-11-15T14:57:59;180.65;;;95.55;;
42514;SDS011;28144;49.920;18.730;2022-11-15T15:00:31;168.10;;;93.22;;
42514;SDS011;28144;49.920;18.730;2022-11-15T15:02:59;229.30;;;114.18;;
42514;SDS011;28144;49.920;18.730;2022-11-15T15:05:46;182.13;;;103.63;;
42514;SDS011;28144;49.920;18.730;2022-11-15T15:11:54;123.28;;;65.63;;
42514;SDS011;28144;49.920;18.730;2022-11-15T15:14:27;135.25;;;70.15;;
42514;SDS011;28144;49.920;18.730;2022-11-15T15:16:56;128.80;;;70.43;;
42514;SDS011;28144;49.920;18.730;2022-11-15T15:19:22;129.77;;;65.20;;
42514;SDS011;28144;49.920;18.730;2022-11-15T15:21:47;117.33;;;65.83;;
42514;SDS011;28144;49.920;18.730;2022-11-15T15:24:14;114.93;;;61.17;;
42514;SDS011;28144;49.920;18.730;2022-11-15T15:26:40;120.53;;;63.85;;
42514;SDS011;28144;49.920;18.730;2022-11-15T15:29:10;270.93;;;179.97;;
42514;SDS011;28144;49.920;18.730;2022-11-15T15:31:39;152.47;;;88.67;;
42514;SDS011;28144;49.920;18.730;2022-11-15T15:34:06;140.90;;;81.03;;
42514;SDS011;28144;49.920;18.730;2022-11-15T15:36:32;183.23;;;107.40;;
42514;SDS011;28144;49.920;18.730;2022-11-15T15:41:36;213.40;;;117.70;;
42514;SDS011;28144;49.920;18.730;2022-11-15T15:44:03;241.77;;;134.27;;
42514;SDS011;28144;49.920;18.730;2022-11-15T15:46:29;192.77;;;109.70;;
42514;SDS011;28144;49.920;18.730;2022-11-15T15:48:54;349.10;;;221.33;;
42514;SDS011;28144;49.920;18.730;2022-11-15T15:51:20;313.17;;;180.07;;
42514;SDS011;28144;49.920;18.730;2022-11-15T15:53:46;187.27;;;99.27;;
42514;SDS011;28144;49.920;18.730;2022-11-15T15:56:12;182.55;;;107.22;;
42514;SDS011;28144;49.920;18.730;2022-11-15T15:58:38;161.50;;;91.97;;
42514;SDS011;28144;49.920;18.730;2022-11-15T16:01:04;165.23;;;96.60;;
42514;SDS011;28144;49.920;18.730;2022-11-15T16:03:30;304.97;;;156.93;;
42514;SDS011;28144;49.920;18.730;2022-11-15T16:05:56;205.45;;;105.57;;
42514;SDS011;28144;49.920;18.730;2022-11-15T16:08:24;184.03;;;97.67;;
42514;SDS011;28144;49.920;18.730;2022-11-15T16:10:51;169.27;;;88.33;;
42514;SDS011;28144;49.920;18.730;2022-11-15T16:13:17;144.20;;;77.40;;
42514;SDS011;28144;49.920;18.730;2022-11-15T16:15:43;141.60;;;74.37;;
42514;SDS011;28144;49.920;18.730;2022-11-15T16:18:12;132.07;;;68.28;;
42514;SDS011;28144;49.920;18.730;2022-11-15T16:20:41;130.17;;;69.90;;
42514;SDS011;28144;49.920;18.730;2022-11-15T16:23:12;124.87;;;71.83;;
42514;SDS011;28144;49.920;18.730;2022-11-15T16:25:57;127.93;;;70.83;;
42514;SDS011;28144;49.920;18.730;2022-11-15T16:28:25;142.50;;;76.57;;
42514;SDS011;28144;49.920;18.730;2022-11-15T16:31:25;145.43;;;73.00;;
42514;SDS011;28144;49.920;18.730;2022-11-15T16:33:47;132.00;;;73.07;;
42514;SDS011;28144;49.920;18.730;2022-11-15T16:38:49;126.97;;;72.22;;
42514;SDS011;28144;49.920;18.730;2022-11-15T16:41:15;128.73;;;69.32;;
42514;SDS011;28144;49.920;18.730;2022-11-15T16:43:44;119.97;;;67.13;;
42514;SDS011;28144;49.920;18.730;2022-11-15T16:46:20;130.70;;;71.53;;
42514;SDS011;28144;49.920;18.730;2022-11-15T16:48:47;131.40;;;67.63;;
42514;SDS011;28144;49.920;18.730;2022-11-15T16:51:13;108.73;;;63.80;;
42514;SDS011;28144;49.920;18.730;2022-11-15T16:53:39;180.50;;;98.63;;
42514;SDS011;28144;49.920;18.730;2022-11-15T16:56:17;177.37;;;92.10;;
42514;SDS011;28144;49.920;18.730;2022-11-15T16:58:47;143.57;;;76.70;;
42514;SDS011;28144;49.920;18.730;2022-11-15T17:01:23;120.13;;;65.43;;
42514;SDS011;28144;49.920;18.730;2022-11-15T17:03:50;106.60;;;61.53;;
42514;SDS011;28144;49.920;18.730;2022-11-15T17:06:16;107.57;;;63.23;;
42514;SDS011;28144;49.920;18.730;2022-11-15T17:08:43;111.80;;;61.80;;
42514;SDS011;28144;49.920;18.730;2022-11-15T17:11:20;144.13;;;78.22;;
42514;SDS011;28144;49.920;18.730;2022-11-15T17:13:47;117.97;;;65.87;;
42514;SDS011;28144;49.920;18.730;2022-11-15T17:16:14;125.85;;;70.18;;
42514;SDS011;28144;49.920;18.730;2022-11-15T17:18:42;128.23;;;72.33;;
42514;SDS011;28144;49.920;18.730;2022-11-15T17:21:13;131.40;;;74.60;;
42514;SDS011;28144;49.920;18.730;2022-11-15T17:23:41;131.87;;;74.13;;
42514;SDS011;28144;49.920;18.730;2022-11-15T17:26:07;124.43;;;71.32;;
42514;SDS011;28144;49.920;18.730;2022-11-15T17:28:36;136.60;;;74.80;;
42514;SDS011;28144;49.920;18.730;2022-11-15T17:31:04;123.70;;;69.97;;
42514;SDS011;28144;49.920;18.730;2022-11-15T17:33:31;129.00;;;73.57;;
42514;SDS011;28144;49.920;18.730;2022-11-15T17:35:57;131.77;;;74.73;;
42514;SDS011;28144;49.920;18.730;2022-11-15T17:38:25;129.30;;;67.77;;
42514;SDS011;28144;49.920;18.730;2022-11-15T17:41:04;135.05;;;71.55;;
42514;SDS011;28144;49.920;18.730;2022-11-15T17:43:37;136.98;;;72.97;;
42514;SDS011;28144;49.920;18.730;2022-11-15T17:46:05;128.67;;;68.37;;
42514;SDS011;28144;49.920;18.730;2022-11-15T17:48:32;145.70;;;73.30;;
42514;SDS011;28144;49.920;18.730;2022-11-15T17:50:59;517.07;;;249.53;;
42514;SDS011;28144;49.920;18.730;2022-11-15T17:53:27;151.83;;;79.67;;
42514;SDS011;28144;49.920;18.730;2022-11-15T17:56:00;136.57;;;71.93;;
42514;SDS011;28144;49.920;18.730;2022-11-15T17:58:26;120.07;;;63.17;;
42514;SDS011;28144;49.920;18.730;2022-11-15T18:00:52;147.93;;;70.37;;
42514;SDS011;28144;49.920;18.730;2022-11-15T18:03:18;191.33;;;84.80;;
42514;SDS011;28144;49.920;18.730;2022-11-15T18:05:43;152.93;;;73.37;;
42514;SDS011;28144;49.920;18.730;2022-11-15T18:08:10;171.90;;;77.13;;
42514;SDS011;28144;49.920;18.730;2022-11-15T18:10:36;154.88;;;75.55;;
42514;SDS011;28144;49.920;18.730;2022-11-15T18:13:02;166.50;;;81.25;;
42514;SDS011;28144;49.920;18.730;2022-11-15T18:15:28;164.20;;;79.33;;
42514;SDS011;28144;49.920;18.730;2022-11-15T18:17:54;164.80;;;81.30;;
42514;SDS011;28144;49.920;18.730;2022-11-15T18:20:19;162.83;;;80.87;;
42514;SDS011;28144;49.920;18.730;2022-11-15T18:22:45;160.97;;;80.90;;
42514;SDS011;28144;49.920;18.730;2022-11-15T18:25:11;160.33;;;76.37;;
42514;SDS011;28144;49.920;18.730;2022-11-15T18:27:40;180.03;;;82.83;;
42514;SDS011;28144;49.920;18.730;2022-11-15T18:30:06;257.65;;;107.47;;
42514;SDS011;28144;49.920;18.730;2022-11-15T18:34:59;249.07;;;89.60;;
42514;SDS011;28144;49.920;18.730;2022-11-15T18:37:24;191.97;;;79.20;;
42514;SDS011;28144;49.920;18.730;2022-11-15T18:39:50;198.23;;;79.50;;
42514;SDS011;28144;49.920;18.730;2022-11-15T18:42:16;229.07;;;84.68;;
42514;SDS011;28144;49.920;18.730;2022-11-15T18:44:42;219.80;;;88.53;;
42514;SDS011;28144;49.920;18.730;2022-11-15T18:47:07;205.93;;;85.43;;
42514;SDS011;28144;49.920;18.730;2022-11-15T18:49:33;206.87;;;87.27;;
42514;SDS011;28144;49.920;18.730;2022-11-15T18:51:59;305.40;;;123.17;;
42514;SDS011;28144;49.920;18.730;2022-11-15T18:54:24;295.67;;;118.80;;
42514;SDS011;28144;49.920;18.730;2022-11-15T18:56:51;308.43;;;127.60;;
42514;SDS011;28144;49.920;18.730;2022-11-15T18:59:17;240.93;;;97.97;;
42514;SDS011;28144;49.920;18.730;2022-11-15T19:01:43;396.37;;;165.60;;
42514;SDS011;28144;49.920;18.730;2022-11-15T19:04:16;314.17;;;130.00;;
42514;SDS011;28144;49.920;18.730;2022-11-15T19:06:44;222.03;;;100.73;;
42514;SDS011;28144;49.920;18.730;2022-11-15T19:09:11;155.13;;;72.57;;
42514;SDS011;28144;49.920;18.730;2022-11-15T19:11:42;289.13;;;119.13;;
42514;SDS011;28144;49.920;18.730;2022-11-15T19:14:09;262.27;;;112.63;;
42514;SDS011;28144;49.920;18.730;2022-11-15T19:16:37;218.67;;;98.97;;
42514;SDS011;28144;49.920;18.730;2022-11-15T19:19:06;127.23;;;62.97;;
42514;SDS011;28144;49.920;18.730;2022-11-15T19:21:34;123.00;;;61.17;;
42514;SDS011;28144;49.920;18.730;2022-11-15T19:24:00;141.20;;;64.23;;